createdAt,value
2022-12-25T00:01:23.480Z,47.47
2022-12-25T00:04:27.152Z,48.10
2022-12-25T00:07:31.042Z,47.85
2022-12-25T00:10:42.903Z,47.79
2022-12-25T00:13:49.713Z,47.71
2022-12-25T00:16:53.371Z,47.99
2022-12-25T00:19:57.097Z,47.37
2022-12-25T00:23:00.743Z,47.59
2022-12-25T00:26:09.123Z,47.00
2022-12-25T00:29:14.622Z,47.74
2022-12-25T00:32:18.229Z,47.40
2022-12-25T00:35:22.224Z,47.12
2022-12-25T00:38:25.757Z,47.01
2022-12-25T00:41:44.542Z,46.94
2022-12-25T00:44:48.610Z,47.18
2022-12-25T00:47:52.070Z,47.55
2022-12-25T00:50:57.385Z,46.70
2022-12-25T00:54:01.453Z,47.17
2022-12-25T00:57:06.700Z,47.35
2022-12-25T01:00:12.002Z,46.60
2022-12-25T01:03:16.515Z,47.02
2022-12-25T01:06:20.123Z,46.78
2022-12-25T01:09:40.945Z,46.93
2022-12-25T01:12:45.860Z,46.63
2022-12-25T01:15:49.921Z,46.75
2022-12-25T01:18:53.791Z,46.44
2022-12-25T01:21:57.341Z,46.23
2022-12-25T01:25:00.989Z,45.91
2022-12-25T01:28:06.348Z,45.42
2022-12-25T01:31:12.163Z,46.17
2022-12-25T01:34:15.677Z,46.37
2022-12-25T01:37:19.842Z,46.12
2022-12-25T01:40:23.801Z,46.06
2022-12-25T01:43:33.330Z,45.81
2022-12-25T01:46:37.311Z,46.18
2022-12-25T01:49:46.415Z,46.08
2022-12-25T01:52:51.855Z,46.45
2022-12-25T01:56:03.778Z,46.20
2022-12-25T01:59:12.018Z,46.96
2022-12-25T02:02:16.686Z,47.18
2022-12-25T02:05:27.843Z,47.70
2022-12-25T02:08:34.118Z,47.63
2022-12-25T02:11:55.915Z,47.58
2022-12-25T02:15:06.107Z,47.68
2022-12-25T02:18:19.391Z,47.43
2022-12-25T02:21:53.346Z,47.62
2022-12-25T02:25:19.593Z,47.57
2022-12-25T02:28:31.993Z,47.65
2022-12-25T02:31:45.080Z,47.60
2022-12-25T02:34:57.070Z,47.25
2022-12-25T02:38:08.052Z,47.38
2022-12-25T02:41:17.771Z,46.73
2022-12-25T02:44:44.247Z,47.03
2022-12-25T02:48:05.633Z,47.18
2022-12-25T02:51:32.276Z,46.34
2022-12-25T02:55:02.887Z,46.49
2022-12-25T02:58:30.545Z,46.41
2022-12-25T03:02:02.237Z,46.76
2022-12-25T03:05:30.257Z,46.39
2022-12-25T03:08:45.582Z,46.34
2022-12-25T03:11:54.503Z,46.39
2022-12-25T03:15:15.914Z,46.28
2022-12-25T03:18:28.341Z,46.39
2022-12-25T03:21:52.117Z,46.41
2022-12-25T03:25:13.163Z,46.56
2022-12-25T03:28:17.104Z,46.63
2022-12-25T03:31:29.167Z,45.83
2022-12-25T03:35:06.510Z,45.60
2022-12-25T03:38:46.357Z,45.98
2022-12-25T03:42:15.436Z,46.00
2022-12-25T03:45:47.467Z,46.00
2022-12-25T03:49:21.382Z,46.02
2022-12-25T03:52:48.518Z,45.32
2022-12-25T03:56:12.038Z,45.70
2022-12-25T03:59:46.175Z,46.17
2022-12-25T04:03:07.293Z,46.47
2022-12-25T04:06:28.268Z,46.20
2022-12-25T04:09:51.044Z,46.24
2022-12-25T04:13:08.529Z,45.89
2022-12-25T04:16:29.723Z,45.87
2022-12-25T04:19:50.528Z,46.13
2022-12-25T04:23:12.468Z,45.59
2022-12-25T04:26:34.628Z,45.76
2022-12-25T04:29:56.406Z,45.89
2022-12-25T04:33:17.766Z,45.96
2022-12-25T04:36:22.591Z,45.87
2022-12-25T04:39:26.283Z,45.16
2022-12-25T04:42:31.451Z,45.82
2022-12-25T04:45:34.882Z,45.47
2022-12-25T04:48:39.176Z,45.53
2022-12-25T04:51:42.784Z,45.91
2022-12-25T04:54:46.591Z,45.61
2022-12-25T04:57:51.400Z,45.76
2022-12-25T05:00:55.299Z,46.03
2022-12-25T05:03:58.961Z,45.87
2022-12-25T05:07:02.932Z,46.07
2022-12-25T05:10:07.799Z,45.63
2022-12-25T05:13:12.946Z,45.72
2022-12-25T05:16:19.605Z,44.96
2022-12-25T05:19:23.798Z,45.58
2022-12-25T05:22:27.511Z,45.21
2022-12-25T05:25:31.819Z,45.61
2022-12-25T05:28:36.999Z,45.14
2022-12-25T05:31:40.834Z,45.25
2022-12-25T05:34:44.513Z,45.71
2022-12-25T05:37:48.436Z,45.39
2022-12-25T05:40:52.954Z,45.60
2022-12-25T05:43:58.343Z,45.46
2022-12-25T05:47:01.687Z,45.57
2022-12-25T05:50:07.651Z,45.96
2022-12-25T05:53:14.628Z,46.25
2022-12-25T05:56:18.902Z,46.42
2022-12-25T05:59:23.704Z,47.02
2022-12-25T06:02:29.558Z,46.96
2022-12-25T06:05:33.243Z,46.18
2022-12-25T06:08:37.301Z,46.84
2022-12-25T06:11:41.531Z,46.99
2022-12-25T06:14:46.590Z,46.90
2022-12-25T06:17:49.905Z,47.36
2022-12-25T06:20:53.815Z,46.98
2022-12-25T06:23:57.366Z,46.71
2022-12-25T06:27:01.132Z,46.37
2022-12-25T06:30:08.066Z,46.46
2022-12-25T06:33:12.056Z,46.35
2022-12-25T06:36:20.739Z,46.50
2022-12-25T06:39:25.755Z,46.13
2022-12-25T06:42:29.742Z,45.97
2022-12-25T06:45:37.234Z,46.32
2022-12-25T06:48:47.878Z,46.24
2022-12-25T06:51:51.916Z,45.75
2022-12-25T06:54:55.245Z,45.61
2022-12-25T06:57:59.213Z,45.69
2022-12-25T07:01:15.059Z,45.93
2022-12-25T07:04:28.585Z,45.83
2022-12-25T07:07:31.909Z,45.69
2022-12-25T07:10:35.718Z,46.01
2022-12-25T07:13:39.317Z,45.78
2022-12-25T07:16:45.715Z,45.75
2022-12-25T07:19:50.217Z,45.72
2022-12-25T07:22:54.195Z,45.68
2022-12-25T07:26:00.021Z,45.39
2022-12-25T07:29:04.113Z,45.42
2022-12-25T07:32:09.337Z,45.32
2022-12-25T07:35:12.943Z,45.40
2022-12-25T07:38:16.505Z,45.06
2022-12-25T07:41:20.629Z,45.25
2022-12-25T07:44:24.746Z,45.07
2022-12-25T07:47:29.710Z,45.11
2022-12-25T07:50:33.042Z,44.57
2022-12-25T07:53:38.625Z,45.15
2022-12-25T07:56:41.919Z,44.56
2022-12-25T07:59:45.725Z,44.61
2022-12-25T08:02:52.043Z,44.57
2022-12-25T08:05:55.819Z,44.66
2022-12-25T08:09:05.611Z,44.44
2022-12-25T08:12:09.300Z,44.50
2022-12-25T08:15:13.850Z,44.17
2022-12-25T08:18:18.839Z,43.96
2022-12-25T08:21:23.016Z,44.52
2022-12-25T08:24:26.705Z,44.17
2022-12-25T08:27:29.992Z,44.45
2022-12-25T08:30:33.691Z,44.06
2022-12-25T08:33:39.150Z,44.28
2022-12-25T08:36:42.899Z,44.16
2022-12-25T08:39:46.191Z,43.90
2022-12-25T08:42:49.821Z,44.07
2022-12-25T08:45:53.473Z,43.88
2022-12-25T08:48:58.820Z,43.99
2022-12-25T08:52:02.215Z,43.58
2022-12-25T08:55:08.337Z,43.47
2022-12-25T08:58:12.742Z,44.24
2022-12-25T09:01:16.887Z,43.65
2022-12-25T09:04:21.847Z,43.29
2022-12-25T09:07:25.357Z,43.80
2022-12-25T09:10:29.761Z,43.26
2022-12-25T09:13:33.527Z,43.25
2022-12-25T09:16:37.251Z,43.02
2022-12-25T09:19:42.168Z,43.36
2022-12-25T09:22:45.632Z,43.74
2022-12-25T09:25:49.427Z,43.80
2022-12-25T09:28:52.933Z,44.03
2022-12-25T09:31:56.851Z,43.98
2022-12-25T09:35:01.589Z,44.31
2022-12-25T09:38:05.696Z,44.41
2022-12-25T09:41:18.060Z,44.44
2022-12-25T09:44:27.580Z,44.73
2022-12-25T09:47:35.025Z,43.12
2022-12-25T09:50:48.529Z,42.50
2022-12-25T09:54:01.765Z,42.64
2022-12-25T09:57:06.673Z,43.38
2022-12-25T10:00:23.327Z,43.81
2022-12-25T10:04:02.760Z,44.40
2022-12-25T10:07:19.858Z,44.25
2022-12-25T10:10:46.641Z,42.46
2022-12-25T10:14:11.716Z,39.81
2022-12-25T10:17:36.416Z,38.67
2022-12-25T10:20:50.980Z,37.78
2022-12-25T10:24:12.270Z,35.77
2022-12-25T10:27:21.707Z,38.38
2022-12-25T10:30:29.758Z,42.38
2022-12-25T10:33:33.144Z,43.58
2022-12-25T10:36:36.805Z,43.39
2022-12-25T10:39:46.663Z,43.46
2022-12-25T10:42:57.206Z,44.04
2022-12-25T10:46:00.797Z,44.71
2022-12-25T10:49:05.348Z,45.29
2022-12-25T10:52:25.185Z,45.44
2022-12-25T10:55:30.336Z,46.96
2022-12-25T10:58:35.650Z,46.84
2022-12-25T11:01:39.367Z,47.55
2022-12-25T11:04:43.379Z,48.63
2022-12-25T11:07:51.305Z,49.48
2022-12-25T11:10:59.575Z,50.31
2022-12-25T11:14:04.808Z,51.01
2022-12-25T11:17:10.503Z,52.02
2022-12-25T11:20:26.317Z,52.71
2022-12-25T11:23:33.278Z,53.46
2022-12-25T11:26:49.777Z,52.96
2022-12-25T11:29:59.639Z,53.35
2022-12-25T11:33:09.057Z,52.77
2022-12-25T11:36:22.517Z,53.46
2022-12-25T11:39:30.971Z,53.01
2022-12-25T11:42:40.504Z,53.08
2022-12-25T11:45:52.951Z,53.09
2022-12-25T11:49:03.176Z,53.15
2022-12-25T11:52:08.892Z,52.81
2022-12-25T11:55:22.838Z,53.12
2022-12-25T11:58:36.881Z,53.04
2022-12-25T12:01:47.922Z,53.21
2022-12-25T12:05:08.069Z,53.04
2022-12-25T12:08:13.857Z,54.60
2022-12-25T12:11:22.938Z,54.56
2022-12-25T12:14:47.653Z,48.39
2022-12-25T12:17:51.291Z,52.38
2022-12-25T12:21:05.912Z,53.06
2022-12-25T12:24:16.080Z,53.44
2022-12-25T12:27:28.075Z,54.47
2022-12-25T12:30:36.332Z,54.08
2022-12-25T12:33:45.091Z,54.33
2022-12-25T12:36:50.118Z,54.81
2022-12-25T12:39:56.507Z,54.45
2022-12-25T12:43:00.553Z,54.29
2022-12-25T12:46:17.924Z,54.85
2022-12-25T12:49:28.824Z,54.73
2022-12-25T12:52:35.953Z,54.92
2022-12-25T12:55:39.751Z,54.87
2022-12-25T12:58:49.899Z,54.70
2022-12-25T13:02:21.506Z,54.90
2022-12-25T13:05:39.077Z,55.13
2022-12-25T13:09:04.502Z,55.27
2022-12-25T13:12:09.851Z,55.55
2022-12-25T13:15:15.641Z,55.49
2022-12-25T13:18:21.567Z,55.49
2022-12-25T13:21:29.635Z,55.59
2022-12-25T13:24:36.315Z,55.58
2022-12-25T13:27:40.141Z,55.55
2022-12-25T13:30:43.960Z,56.00
2022-12-25T13:33:58.108Z,57.72
2022-12-25T13:37:09.963Z,59.30
2022-12-25T13:40:25.996Z,61.52
2022-12-25T13:43:30.479Z,63.46
2022-12-25T13:46:34.302Z,64.20
2022-12-25T13:49:38.886Z,64.49
2022-12-25T13:52:43.989Z,62.13
2022-12-25T13:55:54.560Z,53.04
2022-12-25T13:58:58.324Z,55.21
2022-12-25T14:02:01.829Z,56.50
2022-12-25T14:05:28.291Z,56.80
2022-12-25T14:08:36.292Z,57.12
2022-12-25T14:11:43.052Z,57.50
2022-12-25T14:14:46.679Z,57.61
2022-12-25T14:17:52.864Z,57.87
2022-12-25T14:21:03.420Z,58.01
2022-12-25T14:24:14.987Z,58.17
2022-12-25T14:27:22.096Z,58.33
2022-12-25T14:30:29.923Z,58.48
2022-12-25T14:33:40.296Z,58.76
2022-12-25T14:36:46.198Z,58.67
2022-12-25T14:39:58.376Z,57.93
2022-12-25T14:43:05.834Z,58.15
2022-12-25T14:46:09.308Z,58.44
2022-12-25T14:49:25.943Z,58.33
2022-12-25T14:52:43.502Z,58.71
2022-12-25T14:55:50.634Z,58.48
2022-12-25T14:58:57.502Z,58.65
2022-12-25T15:02:02.190Z,58.38
2022-12-25T15:05:06.434Z,58.02
2022-12-25T15:08:26.484Z,57.87
2022-12-25T15:11:31.388Z,57.70
2022-12-25T15:14:38.690Z,57.67
2022-12-25T15:17:42.840Z,57.21
2022-12-25T15:20:46.767Z,56.99
2022-12-25T15:23:51.394Z,57.07
2022-12-25T15:26:55.469Z,57.05
2022-12-25T15:30:14.470Z,57.14
2022-12-25T15:33:20.501Z,57.77
2022-12-25T15:36:25.369Z,57.87
2022-12-25T15:39:31.042Z,58.90
2022-12-25T15:42:34.401Z,60.18
2022-12-25T15:45:38.375Z,61.13
2022-12-25T15:48:41.689Z,62.15
2022-12-25T15:51:47.410Z,62.49
2022-12-25T15:54:54.126Z,62.75
2022-12-25T15:57:58.272Z,63.22
2022-12-25T16:01:01.672Z,63.54
2022-12-25T16:04:05.961Z,63.15
2022-12-25T16:07:15.732Z,62.89
2022-12-25T16:13:26.102Z,63.69
2022-12-25T16:16:30.205Z,64.21
2022-12-25T16:19:34.081Z,63.94
2022-12-25T16:22:40.939Z,63.96
2022-12-25T16:25:46.094Z,63.73
2022-12-25T16:28:49.930Z,64.18
2022-12-25T16:31:53.308Z,64.21
2022-12-25T16:34:57.219Z,64.47
2022-12-25T16:41:06.395Z,63.70
2022-12-25T16:44:11.073Z,63.45
2022-12-25T16:47:15.275Z,63.69
2022-12-25T16:50:18.870Z,64.18
2022-12-25T16:53:22.936Z,64.31
2022-12-25T16:56:28.489Z,64.21
2022-12-25T16:59:33.108Z,64.37
2022-12-25T17:02:36.726Z,64.36
2022-12-25T17:05:40.676Z,64.11
2022-12-25T17:08:45.214Z,63.84
2022-12-25T17:11:50.238Z,63.72
2022-12-25T17:14:53.982Z,63.67
2022-12-25T17:17:57.669Z,63.96
2022-12-25T17:21:01.104Z,64.14
2022-12-25T17:24:07.177Z,64.20
2022-12-25T17:27:12.220Z,63.76
2022-12-25T17:30:16.276Z,63.83
2022-12-25T17:33:19.775Z,63.96
2022-12-25T17:36:24.170Z,63.78
2022-12-25T17:39:27.548Z,63.66
2022-12-25T17:42:32.712Z,63.76
2022-12-25T17:45:37.836Z,63.44
2022-12-25T17:48:41.766Z,63.26
2022-12-25T17:51:46.020Z,62.97
2022-12-25T17:54:49.871Z,63.11
2022-12-25T17:57:54.709Z,62.73
2022-12-25T18:00:59.015Z,62.65
2022-12-25T18:04:03.237Z,62.35
2022-12-25T18:07:06.828Z,62.50
2022-12-25T18:10:11.128Z,61.92
2022-12-25T18:13:16.249Z,61.49
2022-12-25T18:16:23.192Z,61.41
2022-12-25T18:19:26.977Z,61.57
2022-12-25T18:22:30.558Z,61.13
2022-12-25T18:25:34.787Z,61.68
2022-12-25T18:28:42.330Z,60.87
2022-12-25T18:31:46.380Z,60.88
2022-12-25T18:34:54.524Z,60.32
2022-12-25T18:37:58.238Z,59.42
2022-12-25T18:41:04.922Z,59.08
2022-12-25T18:44:09.981Z,58.53
2022-12-25T18:47:13.344Z,58.18
2022-12-25T18:50:17.298Z,58.12
2022-12-25T18:53:20.690Z,57.69
2022-12-25T18:56:24.793Z,58.06
2022-12-25T18:59:30.782Z,57.95
2022-12-25T19:02:35.042Z,57.71
2022-12-25T19:05:40.301Z,57.74
2022-12-25T19:08:44.031Z,58.40
2022-12-25T19:11:47.524Z,57.37
2022-12-25T19:14:52.845Z,57.75
2022-12-25T19:17:56.419Z,58.07
2022-12-25T19:21:03.219Z,57.91
2022-12-25T19:24:07.173Z,57.81
2022-12-25T19:27:11.261Z,56.91
2022-12-25T19:30:16.344Z,57.08
2022-12-25T19:33:20.726Z,56.37
2022-12-25T19:36:23.911Z,55.90
2022-12-25T19:39:27.629Z,55.79
2022-12-25T19:42:30.952Z,55.62
2022-12-25T19:45:36.081Z,56.24
2022-12-25T19:48:39.443Z,55.96
2022-12-25T19:51:47.053Z,55.54
2022-12-25T19:54:52.706Z,56.28
2022-12-25T19:57:59.243Z,56.46
2022-12-25T20:01:08.727Z,56.52
2022-12-25T20:04:12.897Z,56.43
2022-12-25T20:07:16.223Z,56.61
2022-12-25T20:10:19.977Z,57.12
2022-12-25T20:13:24.093Z,56.80
2022-12-25T20:16:29.476Z,56.86
2022-12-25T20:19:33.140Z,57.51
2022-12-25T20:22:36.996Z,57.64
2022-12-25T20:25:41.842Z,58.27
2022-12-25T20:28:46.393Z,58.71
2022-12-25T20:31:51.362Z,58.77
2022-12-25T20:34:55.256Z,59.17
2022-12-25T20:37:58.504Z,59.27
2022-12-25T20:44:28.277Z,59.61
2022-12-25T20:47:33.200Z,59.88
2022-12-25T20:50:36.485Z,58.87
2022-12-25T20:53:40.430Z,59.05
2022-12-25T20:56:43.957Z,59.25
2022-12-25T20:59:47.389Z,59.24
2022-12-25T21:02:52.674Z,59.23
2022-12-25T21:05:57.971Z,59.63
2022-12-25T21:09:04.022Z,59.61
2022-12-25T21:12:08.993Z,59.39
2022-12-25T21:15:15.660Z,59.80
2022-12-25T21:18:23.425Z,59.69
2022-12-25T21:21:26.821Z,60.02
2022-12-25T21:24:30.626Z,60.07
2022-12-25T21:27:34.263Z,60.62
2022-12-25T21:30:38.564Z,60.50
2022-12-25T21:33:51.397Z,60.45
2022-12-25T21:36:55.042Z,60.63
2022-12-25T21:39:58.349Z,60.58
2022-12-25T21:43:02.159Z,59.97
2022-12-25T21:46:09.033Z,59.68
2022-12-25T21:49:33.922Z,59.76
2022-12-25T21:52:36.485Z,59.76
2022-12-25T21:55:39.931Z,60.21
2022-12-25T21:58:43.806Z,60.65
2022-12-25T22:01:49.113Z,61.67
2022-12-25T22:04:54.089Z,62.45
2022-12-25T22:07:57.201Z,63.10
2022-12-25T22:11:05.010Z,62.43
2022-12-25T22:14:52.990Z,62.84
2022-12-25T22:18:14.734Z,62.88
2022-12-25T22:21:23.179Z,62.40
2022-12-25T22:24:26.455Z,62.71
2022-12-25T22:27:34.590Z,62.54
2022-12-25T22:30:38.256Z,61.87
2022-12-25T22:33:41.735Z,62.44
2022-12-25T22:36:46.609Z,62.21
2022-12-25T22:39:50.218Z,62.25
2022-12-25T22:42:55.738Z,62.35
2022-12-25T22:46:00.191Z,62.07
2022-12-25T22:49:03.721Z,62.10
2022-12-25T22:52:09.801Z,61.84
2022-12-25T22:55:16.623Z,61.81
2022-12-25T22:58:20.121Z,61.46
2022-12-25T23:01:23.494Z,61.46
2022-12-25T23:04:27.086Z,61.55
2022-12-25T23:07:31.908Z,61.58
2022-12-25T23:10:35.408Z,61.27
2022-12-25T23:13:56.636Z,61.30
2022-12-25T23:17:01.137Z,61.20
2022-12-25T23:20:23.999Z,60.89
2022-12-25T23:23:46.227Z,61.37
2022-12-25T23:26:49.434Z,61.15
2022-12-25T23:29:52.923Z,60.93
2022-12-25T23:32:56.352Z,61.05
2022-12-25T23:36:00.013Z,60.51
2022-12-25T23:39:09.994Z,60.29
2022-12-25T23:42:13.917Z,60.65
2022-12-25T23:45:17.463Z,60.67
2022-12-25T23:48:20.966Z,60.58
2022-12-25T23:51:24.384Z,60.49
2022-12-25T23:54:32.176Z,60.41
2022-12-25T23:57:35.670Z,60.46
